createdAt,value
2019-03-26T00:01:47.036Z,39.47
2019-03-26T00:04:18.817Z,45.67
2019-03-26T00:06:50.748Z,35.13
2019-03-26T00:09:22.576Z,38.67
2019-03-26T00:11:54.939Z,38.47
2019-03-26T00:14:27.107Z,34.33
2019-03-26T00:16:58.990Z,28.83
2019-03-26T00:19:30.858Z,36.43
2019-03-26T00:22:03.969Z,35.53
2019-03-26T00:24:35.930Z,34.63
2019-03-26T00:27:08.098Z,31.30
2019-03-26T00:29:40.422Z,35.00
2019-03-26T00:32:12.266Z,38.27
2019-03-26T00:34:44.057Z,33.03
2019-03-26T00:37:15.920Z,35.40
2019-03-26T00:39:47.816Z,32.77
2019-03-26T00:42:25.575Z,27.77
2019-03-26T00:44:57.715Z,32.13
2019-03-26T00:47:30.066Z,28.13
2019-03-26T00:50:01.947Z,29.53
2019-03-26T00:52:33.912Z,29.93
2019-03-26T00:55:05.956Z,29.50
2019-03-26T00:57:37.787Z,36.70
2019-03-26T01:00:09.578Z,33.40
2019-03-26T01:02:41.866Z,35.63
2019-03-26T01:05:13.633Z,30.40
2019-03-26T01:07:45.622Z,33.53
2019-03-26T01:10:26.095Z,27.10
2019-03-26T01:12:58.124Z,30.77
2019-03-26T01:15:30.496Z,27.47
2019-03-26T01:18:02.316Z,26.10
2019-03-26T01:20:34.225Z,28.97
2019-03-26T01:23:06.106Z,34.40
2019-03-26T01:25:39.630Z,30.87
2019-03-26T01:28:11.666Z,30.50
2019-03-26T01:30:43.547Z,29.37
2019-03-26T01:33:15.428Z,31.33
2019-03-26T01:35:47.223Z,30.27
2019-03-26T01:38:19.426Z,28.63
2019-03-26T01:40:51.296Z,27.97
2019-03-26T01:43:29.309Z,29.20
2019-03-26T01:46:01.736Z,25.17
2019-03-26T01:48:33.595Z,33.03
2019-03-26T01:51:05.569Z,28.27
2019-03-26T01:53:37.415Z,27.17
2019-03-26T01:56:09.416Z,29.20
2019-03-26T01:58:41.336Z,28.73
2019-03-26T02:01:13.135Z,32.10
2019-03-26T02:03:44.996Z,30.87
2019-03-26T02:06:16.800Z,27.47
2019-03-26T02:08:48.763Z,36.03
2019-03-26T02:11:20.539Z,35.67
2019-03-26T02:13:52.507Z,32.33
2019-03-26T02:16:24.736Z,29.77
2019-03-26T02:18:56.626Z,29.07
2019-03-26T02:21:28.476Z,27.63
2019-03-26T02:24:00.336Z,30.70
2019-03-26T02:26:32.136Z,30.23
2019-03-26T02:29:04.181Z,30.47
2019-03-26T02:31:36.264Z,28.80
2019-03-26T02:34:08.129Z,30.40
2019-03-26T02:36:40.188Z,26.37
2019-03-26T02:39:12.123Z,29.43
2019-03-26T02:41:44.011Z,27.47
2019-03-26T02:44:19.895Z,32.00
2019-03-26T02:46:52.878Z,30.10
2019-03-26T02:49:24.894Z,27.67
2019-03-26T02:51:56.696Z,25.43
2019-03-26T02:54:28.547Z,25.30
2019-03-26T02:57:00.367Z,28.43
2019-03-26T02:59:32.258Z,33.47
2019-03-26T03:02:04.096Z,33.53
2019-03-26T03:04:35.956Z,30.10
2019-03-26T03:07:07.755Z,24.20
2019-03-26T03:09:39.601Z,33.30
2019-03-26T03:12:11.748Z,28.20
2019-03-26T03:14:43.636Z,31.77
2019-03-26T03:17:15.877Z,31.23
2019-03-26T03:19:47.720Z,34.80
2019-03-26T03:22:19.507Z,25.80
2019-03-26T03:24:51.574Z,30.87
2019-03-26T03:27:23.329Z,33.23
2019-03-26T03:29:55.190Z,33.33
2019-03-26T03:32:26.987Z,37.30
2019-03-26T03:34:59.493Z,30.53
2019-03-26T03:37:31.405Z,33.37
2019-03-26T03:40:03.937Z,30.10
2019-03-26T03:42:35.887Z,37.47
2019-03-26T03:45:10.898Z,35.40
2019-03-26T03:47:43.168Z,37.00
2019-03-26T03:50:15.017Z,28.33
2019-03-26T03:52:46.810Z,30.37
2019-03-26T03:55:18.667Z,29.17
2019-03-26T03:57:52.823Z,23.97
2019-03-26T04:00:34.755Z,31.80
2019-03-26T04:03:07.239Z,32.80
2019-03-26T04:05:39.148Z,33.37
2019-03-26T04:08:11.117Z,30.80
2019-03-26T04:10:42.996Z,26.67
2019-03-26T04:13:14.806Z,28.73
2019-03-26T04:15:46.641Z,32.47
2019-03-26T04:18:18.860Z,29.47
2019-03-26T04:20:50.696Z,30.67
2019-03-26T04:23:22.465Z,32.27
2019-03-26T04:25:54.300Z,28.20
2019-03-26T04:28:26.088Z,26.43
2019-03-26T04:30:57.968Z,25.07
2019-03-26T04:33:29.768Z,31.67
2019-03-26T04:36:02.568Z,31.77
2019-03-26T04:38:34.756Z,32.20
2019-03-26T04:41:06.826Z,38.23
2019-03-26T04:43:38.698Z,31.50
2019-03-26T04:46:16.817Z,31.73
2019-03-26T04:48:51.356Z,34.63
2019-03-26T04:51:23.283Z,30.93
2019-03-26T04:53:55.054Z,37.53
2019-03-26T04:56:27.068Z,34.67
2019-03-26T04:58:58.976Z,36.27
2019-03-26T05:01:30.846Z,37.93
2019-03-26T05:04:02.706Z,39.00
2019-03-26T05:06:38.209Z,36.73
2019-03-26T05:09:08.507Z,45.30
2019-03-26T05:11:40.357Z,38.17
2019-03-26T05:14:12.183Z,44.87
2019-03-26T05:16:44.055Z,37.80
2019-03-26T05:19:16.585Z,37.23
2019-03-26T05:21:48.587Z,36.23
2019-03-26T05:24:20.686Z,36.20
2019-03-26T05:26:52.613Z,33.73
2019-03-26T05:29:24.720Z,41.80
2019-03-26T05:31:56.975Z,36.73
2019-03-26T05:34:28.725Z,31.83
2019-03-26T05:37:00.746Z,38.00
2019-03-26T05:39:32.701Z,32.73
2019-03-26T05:42:04.737Z,37.70
2019-03-26T05:44:37.104Z,38.47
2019-03-26T05:47:09.423Z,38.17
2019-03-26T05:49:41.807Z,33.20
2019-03-26T05:52:13.735Z,26.63
2019-03-26T05:54:45.735Z,31.47
2019-03-26T05:57:17.703Z,34.67
2019-03-26T05:59:49.528Z,38.03
2019-03-26T06:02:21.833Z,35.67
2019-03-26T06:04:53.896Z,46.90
2019-03-26T06:07:25.976Z,45.20
2019-03-26T06:09:57.975Z,51.50
2019-03-26T06:12:29.806Z,39.43
2019-03-26T06:15:01.776Z,34.93
2019-03-26T06:17:33.825Z,36.97
2019-03-26T06:20:06.547Z,44.60
2019-03-26T06:22:38.456Z,42.80
2019-03-26T06:25:10.700Z,52.07
2019-03-26T06:27:42.803Z,50.33
2019-03-26T06:30:14.895Z,54.60
2019-03-26T06:32:48.614Z,47.83
2019-03-26T06:35:20.715Z,35.60
2019-03-26T06:37:52.790Z,28.30
2019-03-26T06:40:24.665Z,26.30
2019-03-26T06:42:56.865Z,34.60
2019-03-26T06:45:28.658Z,41.50
2019-03-26T06:48:04.761Z,37.70
2019-03-26T06:50:38.404Z,44.23
2019-03-26T06:53:10.265Z,39.40
2019-03-26T06:55:42.034Z,27.70
2019-03-26T06:58:13.936Z,20.40
2019-03-26T07:00:45.686Z,22.73
2019-03-26T07:03:17.636Z,26.00
2019-03-26T07:05:49.416Z,20.23
2019-03-26T07:08:21.343Z,25.63
2019-03-26T07:10:54.155Z,25.40
2019-03-26T07:13:25.986Z,27.03
2019-03-26T07:15:57.975Z,36.50
2019-03-26T07:18:29.807Z,32.00
2019-03-26T07:21:02.245Z,25.57
2019-03-26T07:23:34.187Z,35.20
2019-03-26T07:26:06.076Z,47.70
2019-03-26T07:28:38.066Z,45.60
2019-03-26T07:31:10.062Z,51.40
2019-03-26T07:33:42.297Z,49.27
2019-03-26T07:36:14.320Z,49.40
2019-03-26T07:38:46.136Z,47.93
2019-03-26T07:41:18.116Z,46.10
2019-03-26T07:43:50.277Z,45.97
2019-03-26T07:46:22.466Z,41.70
2019-03-26T07:49:01.127Z,43.37
2019-03-26T07:51:33.420Z,40.30
2019-03-26T07:54:05.307Z,40.80
2019-03-26T07:56:37.384Z,39.93
2019-03-26T07:59:09.326Z,32.17
2019-03-26T08:01:41.316Z,30.37
2019-03-26T08:04:14.296Z,33.60
2019-03-26T08:06:46.055Z,26.27
2019-03-26T08:16:35.833Z,29.42
2019-03-26T08:19:07.623Z,24.40
2019-03-26T08:21:40.077Z,24.53
2019-03-26T08:24:12.936Z,25.13
2019-03-26T08:26:45.114Z,24.90
2019-03-26T08:29:16.936Z,24.70
2019-03-26T08:31:49.255Z,24.93
2019-03-26T08:34:21.386Z,24.03
2019-03-26T08:36:53.304Z,24.27
2019-03-26T08:39:25.178Z,29.53
2019-03-26T08:41:57.047Z,29.27
2019-03-26T08:44:30.678Z,23.43
2019-03-26T08:47:02.716Z,25.17
2019-03-26T08:49:41.116Z,26.07
2019-03-26T08:52:13.315Z,28.23
2019-03-26T08:54:45.246Z,28.33
2019-03-26T08:57:17.109Z,23.10
2019-03-26T08:59:48.886Z,20.63
2019-03-26T09:02:21.016Z,20.63
2019-03-26T09:04:52.860Z,24.67
2019-03-26T09:07:24.704Z,22.70
2019-03-26T09:09:56.607Z,25.80
2019-03-26T09:12:28.587Z,27.43
2019-03-26T09:15:01.723Z,30.17
2019-03-26T09:17:34.876Z,27.43
2019-03-26T09:20:08.506Z,24.00
2019-03-26T09:22:40.825Z,31.70
2019-03-26T09:25:12.607Z,31.40
2019-03-26T09:27:44.509Z,26.77
2019-03-26T09:30:16.296Z,23.50
2019-03-26T09:32:48.496Z,27.27
2019-03-26T09:35:21.376Z,26.57
2019-03-26T09:37:53.457Z,23.80
2019-03-26T09:40:25.618Z,25.73
2019-03-26T09:42:57.519Z,23.50
2019-03-26T09:45:29.347Z,21.43
2019-03-26T09:48:01.697Z,26.20
2019-03-26T09:50:39.667Z,22.57
2019-03-26T09:53:12.457Z,22.43
2019-03-26T09:55:44.727Z,23.73
2019-03-26T09:58:16.576Z,23.80
2019-03-26T10:00:48.784Z,23.63
2019-03-26T10:03:20.978Z,27.43
2019-03-26T10:05:52.821Z,25.80
2019-03-26T10:08:25.017Z,25.40
2019-03-26T10:10:56.846Z,29.63
2019-03-26T10:13:29.129Z,28.17
2019-03-26T10:16:00.906Z,30.17
2019-03-26T10:18:33.007Z,29.07
2019-03-26T10:21:04.824Z,28.27
2019-03-26T10:23:37.286Z,26.07
2019-03-26T10:26:09.156Z,26.30
2019-03-26T10:28:41.376Z,22.97
2019-03-26T10:31:13.239Z,34.03
2019-03-26T10:33:45.126Z,39.40
2019-03-26T10:41:18.572Z,27.62
2019-03-26T10:43:49.404Z,29.00
2019-03-26T10:46:21.327Z,23.13
2019-03-26T10:48:53.498Z,25.67
2019-03-26T10:51:26.549Z,23.33
2019-03-26T10:53:59.216Z,25.60
2019-03-26T10:56:32.609Z,27.43
2019-03-26T10:59:04.738Z,28.13
2019-03-26T11:01:36.730Z,40.67
2019-03-26T11:04:08.636Z,23.37
2019-03-26T11:06:40.584Z,19.63
2019-03-26T11:09:23.162Z,20.57
2019-03-26T11:11:46.238Z,21.27
2019-03-26T11:14:17.997Z,19.80
2019-03-26T11:16:50.154Z,20.23
2019-03-26T11:19:21.927Z,19.53
2019-03-26T11:21:53.897Z,29.13
2019-03-26T11:24:25.937Z,16.83
2019-03-26T11:26:57.917Z,21.73
2019-03-26T11:29:29.756Z,16.83
2019-03-26T11:32:01.635Z,18.23
2019-03-26T11:34:33.417Z,27.10
2019-03-26T11:37:05.468Z,19.03
2019-03-26T11:39:38.377Z,28.40
2019-03-26T11:42:10.306Z,23.90
2019-03-26T11:44:42.187Z,20.20
2019-03-26T11:47:14.191Z,20.43
2019-03-26T11:49:46.346Z,33.00
2019-03-26T11:52:21.952Z,20.70
2019-03-26T11:54:54.250Z,23.67
2019-03-26T11:57:26.166Z,20.63
2019-03-26T11:59:58.018Z,33.37
2019-03-26T12:02:29.998Z,51.27
2019-03-26T12:05:02.906Z,39.00
2019-03-26T12:07:35.857Z,26.87
2019-03-26T12:10:07.770Z,23.70
2019-03-26T12:12:39.828Z,21.20
2019-03-26T12:15:11.664Z,29.87
2019-03-26T12:17:44.468Z,27.53
2019-03-26T12:20:16.337Z,23.80
2019-03-26T12:22:48.297Z,28.23
2019-03-26T12:25:20.568Z,33.33
2019-03-26T12:27:52.527Z,22.50
2019-03-26T12:30:35.146Z,21.50
2019-03-26T12:33:07.226Z,18.63
2019-03-26T12:35:39.218Z,17.83
2019-03-26T12:38:16.031Z,31.47
2019-03-26T12:40:47.860Z,13.90
2019-03-26T12:43:20.034Z,24.27
2019-03-26T12:45:52.025Z,26.97
2019-03-26T12:48:23.856Z,15.70
2019-03-26T12:50:55.708Z,13.73
2019-03-26T12:53:29.017Z,9.47
2019-03-26T12:56:00.947Z,9.70
2019-03-26T12:58:36.410Z,12.00
2019-03-26T13:01:06.984Z,10.27
2019-03-26T13:03:38.892Z,8.80
2019-03-26T13:06:10.710Z,9.97
2019-03-26T13:08:42.816Z,10.70
2019-03-26T13:11:17.070Z,24.60
2019-03-26T13:13:48.566Z,11.50
2019-03-26T13:16:23.856Z,33.33
2019-03-26T13:18:55.877Z,6.07
2019-03-26T13:21:27.697Z,5.77
2019-03-26T13:23:59.696Z,8.57
2019-03-26T13:26:31.986Z,9.97
2019-03-26T13:29:03.816Z,6.33
2019-03-26T13:31:35.589Z,9.33
2019-03-26T13:34:07.516Z,9.07
2019-03-26T13:36:39.286Z,5.97
2019-03-26T13:39:11.676Z,8.83
2019-03-26T13:41:43.506Z,12.30
2019-03-26T13:44:15.564Z,19.03
2019-03-26T13:46:47.287Z,12.30
2019-03-26T13:49:19.466Z,17.60
2019-03-26T13:51:51.437Z,14.03
2019-03-26T13:54:24.569Z,13.83
2019-03-26T13:56:56.826Z,16.17
2019-03-26T13:59:28.787Z,14.23
2019-03-26T14:02:00.886Z,15.13
2019-03-26T14:07:10.487Z,11.37
2019-03-26T14:09:42.316Z,14.20
2019-03-26T14:12:14.137Z,19.63
2019-03-26T14:14:53.438Z,16.25
2019-03-26T14:17:25.746Z,10.90
2019-03-26T14:19:58.116Z,18.13
2019-03-26T14:22:36.406Z,15.43
2019-03-26T14:25:08.465Z,19.77
2019-03-26T14:27:40.785Z,10.87
2019-03-26T14:30:12.526Z,11.43
2019-03-26T14:32:44.496Z,16.13
2019-03-26T14:35:16.697Z,15.73
2019-03-26T14:37:51.482Z,9.50
2019-03-26T14:40:22.857Z,10.27
2019-03-26T14:42:54.806Z,12.00
2019-03-26T14:45:26.795Z,6.83
2019-03-26T14:47:58.857Z,9.30
2019-03-26T14:50:30.606Z,9.23
2019-03-26T14:53:02.576Z,8.77
2019-03-26T14:55:34.977Z,6.50
2019-03-26T14:58:07.827Z,2.53
2019-03-26T15:00:39.783Z,2.20
2019-03-26T15:03:12.046Z,2.60
2019-03-26T15:05:43.817Z,2.80
2019-03-26T15:08:15.766Z,2.80
2019-03-26T15:10:47.684Z,3.33
2019-03-26T15:13:19.596Z,2.47
2019-03-26T15:15:51.696Z,2.50
2019-03-26T15:18:23.656Z,2.50
2019-03-26T15:20:55.486Z,4.00
2019-03-26T15:23:31.376Z,5.50
2019-03-26T15:26:04.886Z,1.97
2019-03-26T15:28:36.807Z,6.37
2019-03-26T15:31:08.606Z,4.33
2019-03-26T15:33:40.597Z,4.10
2019-03-26T15:36:12.398Z,3.53
2019-03-26T15:38:44.336Z,4.40
2019-03-26T15:41:21.407Z,5.73
2019-03-26T15:43:50.046Z,4.03
2019-03-26T15:46:21.867Z,6.03
2019-03-26T15:48:53.797Z,5.47
2019-03-26T15:51:25.587Z,9.77
2019-03-26T15:53:57.657Z,8.67
2019-03-26T15:56:30.026Z,9.67
2019-03-26T15:59:01.947Z,71.87
2019-03-26T16:01:34.017Z,22.07
2019-03-26T16:04:06.297Z,7.53
2019-03-26T16:06:38.096Z,13.50
2019-03-26T16:09:11.336Z,21.00
2019-03-26T16:11:43.287Z,11.30
2019-03-26T16:14:15.296Z,9.90
2019-03-26T16:16:47.046Z,7.93
2019-03-26T16:19:31.855Z,5.00
2019-03-26T16:21:52.675Z,7.03
2019-03-26T16:24:28.399Z,6.13
2019-03-26T16:27:00.637Z,6.83
2019-03-26T16:29:32.747Z,9.33
2019-03-26T16:32:04.634Z,6.63
2019-03-26T16:34:36.611Z,10.50
2019-03-26T16:37:08.536Z,8.97
2019-03-26T16:39:40.581Z,10.17
2019-03-26T16:42:12.387Z,8.53
2019-03-26T16:44:44.359Z,10.97
2019-03-26T16:47:16.397Z,10.30
2019-03-26T16:49:48.536Z,9.27
2019-03-26T16:52:20.307Z,14.13
2019-03-26T16:54:52.264Z,10.97
2019-03-26T16:57:24.741Z,13.47
2019-03-26T16:59:56.696Z,14.73
2019-03-26T17:02:28.436Z,10.97
2019-03-26T17:05:00.385Z,9.23
2019-03-26T17:07:32.156Z,9.90
2019-03-26T17:10:07.898Z,10.67
2019-03-26T17:12:39.990Z,9.77
2019-03-26T17:15:13.096Z,13.30
2019-03-26T17:17:45.007Z,15.20
2019-03-26T17:20:17.433Z,15.27
2019-03-26T17:22:49.206Z,13.50
2019-03-26T17:25:21.356Z,11.30
2019-03-26T17:27:56.083Z,12.33
2019-03-26T17:30:28.156Z,15.73
2019-03-26T17:33:00.056Z,16.97
2019-03-26T17:35:32.309Z,16.57
2019-03-26T17:38:04.227Z,14.10
2019-03-26T17:40:36.066Z,16.40
2019-03-26T17:43:08.537Z,18.33
2019-03-26T17:45:40.576Z,19.33
2019-03-26T17:48:13.032Z,20.77
2019-03-26T17:50:45.507Z,15.77
2019-03-26T17:53:17.257Z,15.93
2019-03-26T17:55:49.175Z,12.00
2019-03-26T17:58:21.507Z,14.97
2019-03-26T18:00:53.879Z,13.83
2019-03-26T18:03:27.214Z,12.30
2019-03-26T18:05:59.477Z,13.97
2019-03-26T18:08:31.636Z,9.57
2019-03-26T18:11:03.930Z,11.10
2019-03-26T18:13:35.828Z,6.53
2019-03-26T18:16:07.807Z,10.57
2019-03-26T18:18:39.664Z,11.87
2019-03-26T18:21:11.496Z,10.23
2019-03-26T18:23:43.336Z,9.40
2019-03-26T18:26:16.327Z,13.00
2019-03-26T18:28:48.576Z,14.43
2019-03-26T18:31:20.675Z,13.97
2019-03-26T18:33:52.591Z,10.90
2019-03-26T18:36:24.656Z,12.43
2019-03-26T18:38:56.466Z,12.67
2019-03-26T18:41:28.296Z,11.77
2019-03-26T18:44:00.246Z,12.70
2019-03-26T18:46:32.174Z,11.70
2019-03-26T18:49:04.114Z,15.10
2019-03-26T18:51:36.036Z,11.20
2019-03-26T18:54:07.904Z,15.60
2019-03-26T18:56:39.806Z,14.37
2019-03-26T18:59:12.726Z,15.03
2019-03-26T19:01:44.916Z,14.53
2019-03-26T19:04:16.837Z,11.00
2019-03-26T19:06:49.276Z,12.53
2019-03-26T19:09:21.232Z,16.10
2019-03-26T19:11:53.967Z,10.53
2019-03-26T19:14:26.796Z,20.83
2019-03-26T19:16:58.966Z,16.03
2019-03-26T19:19:31.189Z,14.97
2019-03-26T19:22:03.127Z,22.10
2019-03-26T19:24:35.206Z,15.17
2019-03-26T19:27:08.326Z,17.43
2019-03-26T19:29:40.704Z,21.73
2019-03-26T19:32:12.776Z,18.53
2019-03-26T19:34:44.775Z,18.07
2019-03-26T19:37:16.906Z,14.17
2019-03-26T19:39:48.766Z,23.97
2019-03-26T19:42:20.696Z,16.80
2019-03-26T19:44:53.976Z,16.87
2019-03-26T19:47:25.926Z,12.33
2019-03-26T19:49:57.746Z,14.10
2019-03-26T19:52:29.696Z,15.97
2019-03-26T19:55:04.586Z,28.20
2019-03-26T19:57:36.787Z,22.30
2019-03-26T20:00:12.446Z,20.37
2019-03-26T20:02:44.601Z,22.50
2019-03-26T20:05:16.504Z,21.03
2019-03-26T20:07:48.414Z,17.77
2019-03-26T20:10:20.267Z,20.67
2019-03-26T20:12:52.466Z,22.97
2019-03-26T20:15:24.407Z,19.17
2019-03-26T20:17:56.306Z,18.17
2019-03-26T20:20:28.197Z,15.90
2019-03-26T20:23:00.080Z,14.13
2019-03-26T20:25:32.423Z,14.60
2019-03-26T20:28:04.819Z,9.37
2019-03-26T20:30:37.307Z,12.07
2019-03-26T20:33:09.358Z,13.87
2019-03-26T20:35:41.265Z,10.20
2019-03-26T20:38:13.168Z,13.37
2019-03-26T20:40:45.137Z,12.70
2019-03-26T20:43:17.577Z,13.23
2019-03-26T20:45:49.467Z,9.73
2019-03-26T20:48:21.421Z,16.03
2019-03-26T20:50:53.467Z,13.97
2019-03-26T20:53:25.506Z,8.77
2019-03-26T20:55:57.687Z,8.97
2019-03-26T20:58:29.960Z,12.43
2019-03-26T21:01:02.646Z,11.83
2019-03-26T21:03:34.596Z,10.23
2019-03-26T21:06:06.897Z,11.50
2019-03-26T21:16:12.086Z,14.47
2019-03-26T21:18:44.006Z,13.77
2019-03-26T21:21:15.904Z,10.40
2019-03-26T21:23:51.427Z,17.73
2019-03-26T21:26:23.274Z,18.00
2019-03-26T21:31:48.767Z,13.58
2019-03-26T21:34:30.240Z,16.17
2019-03-26T21:36:55.064Z,12.60
2019-03-26T21:39:26.856Z,20.57
2019-03-26T21:41:58.736Z,19.43
2019-03-26T21:44:30.606Z,18.33
2019-03-26T21:47:06.276Z,19.30
2019-03-26T21:49:38.034Z,16.40
2019-03-26T21:52:10.118Z,15.17
2019-03-26T21:54:42.121Z,15.87
2019-03-26T21:57:14.575Z,15.90
2019-03-26T21:59:46.525Z,15.67
2019-03-26T22:02:18.954Z,16.27
2019-03-26T22:04:51.567Z,11.80
2019-03-26T22:07:23.678Z,10.57
2019-03-26T22:09:56.264Z,12.37
2019-03-26T22:12:28.294Z,12.40
2019-03-26T22:15:00.917Z,15.50
2019-03-26T22:17:32.807Z,8.07
2019-03-26T22:20:05.155Z,16.20
2019-03-26T22:22:37.433Z,11.50
2019-03-26T22:25:09.345Z,10.47
2019-03-26T22:27:42.411Z,12.73
2019-03-26T22:30:14.299Z,11.80
2019-03-26T22:32:52.729Z,12.60
2019-03-26T22:35:25.226Z,16.23
2019-03-26T22:37:57.366Z,12.97
2019-03-26T22:40:29.221Z,13.90
2019-03-26T22:43:01.355Z,12.80
2019-03-26T22:45:33.296Z,12.90
2019-03-26T22:48:05.537Z,18.13
2019-03-26T22:50:37.496Z,21.40
2019-03-26T22:53:09.536Z,15.60
2019-03-26T22:55:41.446Z,12.80
2019-03-26T22:58:13.585Z,17.50
2019-03-26T23:00:45.956Z,22.30
2019-03-26T23:03:19.726Z,15.53
2019-03-26T23:05:51.887Z,12.77
2019-03-26T23:08:24.030Z,13.63
2019-03-26T23:10:56.004Z,15.87
2019-03-26T23:13:28.349Z,13.23
2019-03-26T23:16:00.246Z,13.90
2019-03-26T23:18:32.236Z,13.17
2019-03-26T23:21:04.016Z,12.23
2019-03-26T23:23:35.944Z,14.10
2019-03-26T23:26:08.036Z,14.97
2019-03-26T23:28:40.286Z,11.47
2019-03-26T23:31:12.377Z,12.00
2019-03-26T23:33:45.774Z,14.97
2019-03-26T23:36:18.178Z,16.17
2019-03-26T23:38:50.036Z,14.40
2019-03-26T23:41:21.947Z,13.40
2019-03-26T23:43:54.111Z,16.17
2019-03-26T23:46:26.237Z,18.77
2019-03-26T23:48:58.446Z,13.00
2019-03-26T23:51:30.346Z,14.13
2019-03-26T23:54:02.338Z,13.00
2019-03-26T23:56:34.157Z,14.50
2019-03-26T23:59:06.196Z,14.60
